Time;durP1;ratioP1;P1;durP2;ratioP2;P2;SDS_P1;SDS_P2;PMS_P1;PMS_P2;Temp;Humidity;BMP_temperature;BMP_pressure;BME280_temperature;BME280_humidity;BME280_pressure;Samples;Min_cycle;Max_cycle;Signal;HPM_P1;HPM_P2
2022/03/13 00:00:54;;;;;;;17.80;10.38;;;11.00;98.60;;;;;;4901828;29;20056;-88
2022/03/13 00:03:22;;;;;;;14.70;10.68;;;11.10;98.20;;;;;;4902150;29;20058;-88
2022/03/13 00:05:50;;;;;;;13.80;10.02;;;11.00;98.60;;;;;;4914783;29;20055;-87
2022/03/13 00:08:27;;;;;;;12.98;9.63;;;11.10;98.70;;;;;;4905391;29;20180;-87
2022/03/13 00:10:58;;;;;;;13.68;9.88;;;11.00;98.50;;;;;;4907928;29;20043;-87
2022/03/13 00:13:36;;;;;;;16.75;10.15;;;11.00;98.30;;;;;;4911180;29;20033;-88
2022/03/13 00:16:08;;;;;;;12.02;8.82;;;11.10;98.20;;;;;;4893949;29;20116;-87
2022/03/13 00:18:35;;;;;;;12.82;9.25;;;11.10;98.60;;;;;;4901585;29;20047;-87
2022/03/13 00:21:04;;;;;;;12.68;8.77;;;11.10;98.30;;;;;;4894761;29;20139;-87
2022/03/13 00:23:32;;;;;;;13.23;9.13;;;11.10;98.60;;;;;;4910620;29;20445;-87
2022/03/13 00:25:58;;;;;;;13.95;8.57;;;11.10;98.30;;;;;;4892713;29;20044;-88
2022/03/13 00:28:24;;;;;;;13.55;9.23;;;11.10;98.50;;;;;;4890596;29;20055;-87
2022/03/13 00:30:50;;;;;;;12.68;8.68;;;11.00;98.30;;;;;;4893085;29;20072;-89
2022/03/13 00:33:15;;;;;;;13.75;8.60;;;11.00;98.50;;;;;;4893887;29;20044;-88
2022/03/13 00:35:42;;;;;;;13.70;9.20;;;11.00;98.60;;;;;;4909717;29;20037;-88
2022/03/13 00:38:08;;;;;;;13.68;9.05;;;11.00;98.70;;;;;;4901754;29;20043;-86
2022/03/13 00:40:34;;;;;;;12.55;8.80;;;11.00;98.10;;;;;;4904797;29;20045;-87
2022/03/13 00:43:00;;;;;;;11.00;7.90;;;11.00;98.10;;;;;;4911509;29;20028;-86
2022/03/13 00:45:27;;;;;;;11.52;8.20;;;11.10;97.50;;;;;;4896647;29;20043;-88
2022/03/13 00:47:52;;;;;;;11.05;8.20;;;11.20;97.80;;;;;;4904653;29;20387;-88
2022/03/13 00:50:18;;;;;;;11.20;7.85;;;11.30;97.80;;;;;;4917839;29;20040;-87
2022/03/13 00:52:45;;;;;;;11.93;8.35;;;11.20;97.90;;;;;;4904923;29;20040;-87
2022/03/13 00:55:11;;;;;;;13.68;8.75;;;11.30;97.60;;;;;;4914493;29;20434;-88
2022/03/13 00:57:37;;;;;;;12.15;8.50;;;11.30;97.70;;;;;;4917148;29;20028;-88
2022/03/13 01:00:05;;;;;;;12.13;7.88;;;11.30;97.90;;;;;;4897582;29;20135;-87
2022/03/13 01:02:32;;;;;;;10.63;8.23;;;11.30;98.00;;;;;;4919433;29;20034;-88
2022/03/13 01:04:57;;;;;;;12.15;8.00;;;11.30;98.10;;;;;;4935434;29;20046;-88
2022/03/13 01:07:23;;;;;;;11.07;8.13;;;11.30;98.40;;;;;;4898569;29;20040;-88
2022/03/13 01:09:48;;;;;;;10.95;7.90;;;11.30;98.30;;;;;;4883140;29;20522;-88
2022/03/13 01:12:14;;;;;;;12.38;7.82;;;11.20;98.10;;;;;;4899817;29;20056;-88
2022/03/13 01:14:40;;;;;;;11.52;8.00;;;11.30;98.20;;;;;;4909731;29;20048;-88
2022/03/13 01:17:08;;;;;;;10.35;7.88;;;11.20;98.40;;;;;;4897052;29;20511;-87
2022/03/13 01:19:34;;;;;;;10.82;7.75;;;11.20;98.60;;;;;;4913565;29;20037;-88
2022/03/13 01:22:00;;;;;;;11.13;8.05;;;11.20;98.80;;;;;;4900027;29;20037;-87
2022/03/13 01:24:33;;;;;;;10.55;7.60;;;11.20;98.70;;;;;;4897047;29;20040;-88
2022/03/13 01:27:02;;;;;;;10.23;7.60;;;11.20;98.80;;;;;;4897802;29;20068;-88
2022/03/13 01:29:31;;;;;;;9.20;6.20;;;11.10;99.00;;;;;;4911832;29;20490;-86
2022/03/13 01:31:57;;;;;;;8.25;5.82;;;11.10;99.10;;;;;;4903503;29;20047;-88
2022/03/13 01:34:35;;;;;;;7.95;5.80;;;11.00;99.10;;;;;;4896614;29;20495;-87
2022/03/13 01:37:11;;;;;;;8.18;5.78;;;11.00;99.10;;;;;;4911136;29;20441;-87
2022/03/13 01:39:37;;;;;;;11.07;7.60;;;10.90;99.30;;;;;;4901813;29;20108;-88
2022/03/13 01:42:04;;;;;;;9.15;6.70;;;10.90;99.40;;;;;;4902993;29;20036;-87
2022/03/13 01:44:33;;;;;;;10.93;8.02;;;10.90;99.50;;;;;;4888653;29;20036;-87
2022/03/13 01:47:01;;;;;;;10.45;8.07;;;10.80;99.70;;;;;;4897946;29;20036;-87
2022/03/13 01:49:28;;;;;;;12.57;8.90;;;10.80;99.80;;;;;;4882911;29;20036;-87
2022/03/13 01:51:57;;;;;;;12.27;8.93;;;10.80;99.90;;;;;;4881172;29;20040;-87
2022/03/13 01:54:23;;;;;;;11.10;8.35;;;10.80;99.90;;;;;;4881882;29;20036;-88
2022/03/13 01:56:49;;;;;;;12.02;7.70;;;10.70;99.80;;;;;;4881475;29;20091;-88
2022/03/13 01:59:17;;;;;;;12.18;8.05;;;10.70;99.80;;;;;;4881241;29;20135;-88
2022/03/13 02:01:44;;;;;;;11.13;8.13;;;10.60;99.80;;;;;;4882229;29;20037;-87
2022/03/13 02:04:12;;;;;;;11.20;7.65;;;10.60;99.80;;;;;;4884423;29;20041;-88
2022/03/13 02:06:39;;;;;;;12.23;8.77;;;10.50;99.80;;;;;;4896342;29;20785;-87
2022/03/13 02:09:07;;;;;;;12.55;9.00;;;10.40;99.80;;;;;;4896713;29;20100;-89
2022/03/13 02:11:38;;;;;;;12.85;8.93;;;10.30;99.80;;;;;;4895307;29;20075;-87
2022/03/13 02:14:05;;;;;;;12.13;9.35;;;10.20;99.80;;;;;;4903643;29;20060;-87
2022/03/13 02:16:32;;;;;;;12.25;9.52;;;10.10;99.80;;;;;;4899352;29;20059;-87
2022/03/13 02:18:58;;;;;;;13.73;10.27;;;10.10;99.90;;;;;;4896456;29;20586;-88
2022/03/13 02:21:31;;;;;;;13.45;10.77;;;9.90;99.90;;;;;;4910593;29;20035;-87
2022/03/13 02:24:02;;;;;;;12.55;9.77;;;9.90;99.90;;;;;;4899919;29;20080;-88
2022/03/13 02:26:32;;;;;;;13.45;9.80;;;9.80;99.90;;;;;;4896905;29;20746;-87
2022/03/13 02:28:58;;;;;;;14.85;10.38;;;9.80;99.90;;;;;;4881185;29;20152;-87
2022/03/13 02:31:27;;;;;;;13.60;10.32;;;9.80;99.90;;;;;;4883239;29;20669;-87
2022/03/13 02:33:54;;;;;;;14.13;10.45;;;9.80;99.90;;;;;;4918351;29;20127;-88
2022/03/13 02:36:49;;;;;;;13.38;10.15;;;9.70;99.90;;;;;;4905447;29;20060;-88
2022/03/13 02:39:15;;;;;;;19.67;12.00;;;9.70;99.90;;;;;;4899004;29;20076;-86
2022/03/13 02:41:41;;;;;;;17.58;12.60;;;9.60;99.90;;;;;;4896469;29;20060;-87
2022/03/13 02:44:08;;;;;;;16.42;12.80;;;9.60;99.90;;;;;;4882115;29;20032;-86
2022/03/13 02:46:55;;;;;;;19.70;14.88;;;9.50;99.90;;;;;;4890963;29;20100;-86
2022/03/13 02:49:23;;;;;;;17.98;12.82;;;9.50;99.90;;;;;;4898019;29;20036;-87
2022/03/13 02:51:51;;;;;;;20.75;15.18;;;9.40;99.90;;;;;;4898685;29;20032;-87
2022/03/13 02:54:16;;;;;;;19.95;14.85;;;9.40;99.90;;;;;;4901936;29;20041;-88
2022/03/13 02:56:44;;;;;;;22.98;17.05;;;9.30;99.90;;;;;;4903843;29;20483;-87
2022/03/13 02:59:12;;;;;;;23.48;18.02;;;9.30;99.90;;;;;;4913543;29;20029;-88
2022/03/13 03:01:38;;;;;;;25.08;17.67;;;9.30;99.90;;;;;;4905520;29;20092;-87
2022/03/13 03:04:05;;;;;;;23.23;16.88;;;9.20;99.90;;;;;;4922405;29;20021;-90
2022/03/13 03:06:32;;;;;;;24.90;17.48;;;9.20;99.90;;;;;;4922691;29;20084;-88
2022/03/13 03:09:01;;;;;;;22.23;15.95;;;9.20;99.90;;;;;;4922995;29;20028;-88
2022/03/13 03:11:27;;;;;;;22.33;15.60;;;9.30;99.90;;;;;;4923551;29;20057;-89
2022/03/13 03:13:53;;;;;;;22.95;16.15;;;9.20;99.90;;;;;;4905055;29;20044;-87
2022/03/13 03:16:19;;;;;;;18.85;14.02;;;9.20;99.90;;;;;;4922614;29;20016;-88
2022/03/13 03:18:46;;;;;;;25.02;15.93;;;9.20;99.90;;;;;;4922527;29;20032;-87
2022/03/13 03:21:13;;;;;;;20.50;15.13;;;9.10;99.90;;;;;;4923195;29;20052;-88
2022/03/13 03:23:39;;;;;;;23.20;16.27;;;9.10;99.90;;;;;;4922298;29;20037;-88
2022/03/13 03:26:06;;;;;;;19.42;14.80;;;9.10;99.90;;;;;;4921988;29;20045;-88
2022/03/13 03:28:34;;;;;;;19.63;14.77;;;9.10;99.90;;;;;;4922116;29;20029;-88
2022/03/13 03:31:00;;;;;;;22.75;16.20;;;9.00;99.90;;;;;;4922002;29;20021;-88
2022/03/13 03:33:26;;;;;;;24.77;17.85;;;9.00;99.90;;;;;;4904392;29;20041;-88
2022/03/13 03:35:52;;;;;;;21.02;14.93;;;9.00;99.90;;;;;;4901401;29;20044;-87
2022/03/13 03:38:18;;;;;;;18.55;13.63;;;9.00;99.90;;;;;;4900288;29;20558;-88
2022/03/13 03:40:44;;;;;;;18.75;12.68;;;8.90;99.90;;;;;;4884071;29;20044;-87
2022/03/13 03:43:09;;;;;;;17.45;13.40;;;8.90;99.90;;;;;;4900784;29;20032;-88
2022/03/13 03:45:35;;;;;;;18.77;13.82;;;8.90;99.90;;;;;;4900714;29;20587;-87
2022/03/13 03:48:01;;;;;;;20.05;13.38;;;8.90;99.90;;;;;;4899561;29;20068;-88
2022/03/13 03:50:26;;;;;;;17.20;13.10;;;8.90;99.90;;;;;;4899595;29;20102;-87
2022/03/13 03:52:55;;;;;;;19.13;12.75;;;9.00;99.90;;;;;;4899564;29;20502;-87
2022/03/13 03:55:22;;;;;;;16.10;12.00;;;9.00;99.90;;;;;;4900637;29;20085;-87
2022/03/13 03:57:48;;;;;;;17.90;12.52;;;9.00;99.90;;;;;;4899100;29;20432;-88
2022/03/13 04:00:14;;;;;;;17.27;12.65;;;9.00;99.90;;;;;;4900388;29;20120;-87
2022/03/13 04:02:41;;;;;;;18.08;13.55;;;9.00;99.90;;;;;;4899160;29;20097;-87
2022/03/13 04:05:07;;;;;;;17.80;13.05;;;9.10;99.90;;;;;;4898851;29;20044;-88
2022/03/13 04:07:38;;;;;;;19.40;13.90;;;9.10;99.90;;;;;;4900062;29;20526;-88
2022/03/13 04:10:07;;;;;;;16.45;12.40;;;9.10;99.90;;;;;;4898701;29;20119;-89
2022/03/13 04:12:34;;;;;;;21.77;15.82;;;9.10;99.90;;;;;;4898532;29;20055;-87
2022/03/13 04:15:01;;;;;;;18.25;13.95;;;9.10;99.90;;;;;;4902967;29;20036;-87
2022/03/13 04:17:27;;;;;;;21.05;15.00;;;9.10;99.90;;;;;;4904396;29;20089;-88
2022/03/13 04:19:53;;;;;;;19.30;14.48;;;9.10;99.90;;;;;;4905502;29;20554;-88
2022/03/13 04:22:18;;;;;;;20.33;14.73;;;9.10;99.90;;;;;;4904041;29;20063;-87
2022/03/13 04:24:44;;;;;;;22.27;15.52;;;9.10;99.90;;;;;;4904368;29;20127;-88
2022/03/13 04:27:10;;;;;;;20.15;15.57;;;9.10;99.90;;;;;;4905534;29;20068;-88
2022/03/13 04:29:36;;;;;;;20.98;14.45;;;9.10;99.90;;;;;;4904027;29;20135;-88
2022/03/13 04:32:05;;;;;;;17.67;13.23;;;9.10;99.90;;;;;;4904212;29;20024;-88
2022/03/13 04:34:32;;;;;;;16.23;12.07;;;9.10;99.90;;;;;;4904287;29;20053;-88
2022/03/13 04:37:00;;;;;;;14.85;11.15;;;9.10;99.90;;;;;;4888580;29;20448;-87
2022/03/13 04:39:35;;;;;;;13.60;10.55;;;9.10;99.90;;;;;;4903895;29;20079;-88
2022/03/13 04:42:04;;;;;;;13.93;10.13;;;9.20;99.90;;;;;;4903646;29;20036;-87
2022/03/13 04:44:32;;;;;;;13.27;10.15;;;9.10;99.90;;;;;;4903422;29;20040;-87
2022/03/13 04:46:58;;;;;;;15.13;10.13;;;9.10;99.90;;;;;;4903682;29;20150;-87
2022/03/13 04:49:25;;;;;;;13.25;9.82;;;9.10;99.90;;;;;;4903729;29;20452;-88
2022/03/13 04:51:50;;;;;;;15.07;10.73;;;9.10;99.90;;;;;;4903683;29;20069;-87
2022/03/13 04:54:17;;;;;;;14.50;10.73;;;9.10;99.90;;;;;;4903809;29;20088;-88
2022/03/13 04:56:44;;;;;;;15.30;11.27;;;9.10;99.90;;;;;;4904824;29;20114;-86
2022/03/13 04:59:10;;;;;;;17.05;12.88;;;9.10;99.90;;;;;;4903895;29;20048;-88
2022/03/13 05:01:37;;;;;;;17.70;12.43;;;9.10;99.90;;;;;;4904047;29;20040;-87
2022/03/13 05:04:05;;;;;;;16.27;12.40;;;9.10;99.90;;;;;;4903966;29;20112;-87
2022/03/13 05:06:36;;;;;;;17.48;11.80;;;9.10;99.90;;;;;;4905355;29;20040;-88
2022/03/13 05:09:03;;;;;;;17.70;12.40;;;9.00;99.90;;;;;;4904073;29;20048;-87
2022/03/13 05:11:28;;;;;;;13.32;10.02;;;9.00;99.90;;;;;;4903512;29;20140;-87
2022/03/13 05:13:54;;;;;;;17.63;12.15;;;9.00;99.90;;;;;;4903449;29;20489;-87
2022/03/13 05:16:21;;;;;;;16.90;12.13;;;9.00;99.90;;;;;;4904929;29;20518;-86
2022/03/13 05:18:47;;;;;;;17.10;12.20;;;8.90;99.90;;;;;;4903255;29;20037;-86
2022/03/13 05:21:12;;;;;;;16.80;11.85;;;8.90;99.90;;;;;;4903436;29;20558;-87
2022/03/13 05:23:38;;;;;;;13.73;10.23;;;8.90;99.90;;;;;;4904140;29;20028;-86
2022/03/13 05:26:04;;;;;;;13.90;9.88;;;8.90;99.90;;;;;;4901569;29;20559;-86
2022/03/13 05:28:30;;;;;;;12.13;9.43;;;9.00;99.90;;;;;;4900033;29;20029;-87
2022/03/13 05:30:56;;;;;;;14.90;9.93;;;9.00;99.90;;;;;;4900269;29;20037;-87
2022/03/13 05:33:22;;;;;;;13.25;9.50;;;9.00;99.90;;;;;;4900458;29;20051;-87
2022/03/13 05:35:48;;;;;;;12.82;9.48;;;9.00;99.90;;;;;;4901694;29;20128;-86
2022/03/13 05:38:14;;;;;;;12.55;9.25;;;9.00;99.90;;;;;;4901565;29;20048;-87
2022/03/13 05:40:40;;;;;;;13.57;9.73;;;9.00;99.90;;;;;;4884675;29;20044;-86
2022/03/13 05:43:06;;;;;;;13.25;9.13;;;9.00;99.90;;;;;;4900285;29;20040;-85
2022/03/13 05:45:32;;;;;;;13.50;10.48;;;9.00;99.90;;;;;;4901659;29;20033;-87
2022/03/13 05:48:10;;;;;;;13.45;9.90;;;9.00;99.90;;;;;;4884420;29;20092;-87
2022/03/13 05:50:37;;;;;;;13.63;9.63;;;9.00;99.90;;;;;;4884819;29;20040;-86
2022/03/13 05:53:03;;;;;;;19.17;10.77;;;9.00;99.90;;;;;;4899977;29;20060;-86
2022/03/13 05:55:30;;;;;;;15.27;10.30;;;9.00;99.90;;;;;;4901290;29;20047;-87
2022/03/13 05:57:58;;;;;;;14.27;11.13;;;9.00;99.90;;;;;;4901476;29;20084;-87
2022/03/13 06:00:25;;;;;;;15.27;10.50;;;9.00;99.80;;;;;;4901632;29;20124;-86
2022/03/13 06:02:51;;;;;;;15.55;11.10;;;9.00;99.70;;;;;;4900337;29;20053;-86
2022/03/13 06:05:20;;;;;;;16.25;11.00;;;9.00;99.20;;;;;;4884300;29;20063;-87
2022/03/13 06:07:47;;;;;;;15.35;11.13;;;9.00;99.20;;;;;;4901286;29;20071;-86
2022/03/13 06:10:14;;;;;;;15.18;10.75;;;9.00;98.50;;;;;;4902686;29;20525;-86
2022/03/13 06:12:39;;;;;;;13.32;9.82;;;8.90;99.20;;;;;;4900687;29;20518;-86
2022/03/13 06:15:07;;;;;;;13.63;9.57;;;8.90;99.30;;;;;;4901020;29;20040;-87
2022/03/13 06:17:42;;;;;;;13.40;8.50;;;8.80;99.40;;;;;;4900795;29;20177;-86
2022/03/13 06:20:10;;;;;;;11.88;8.30;;;8.90;99.40;;;;;;4900182;29;20128;-87
2022/03/13 06:22:40;;;;;;;11.50;7.72;;;8.80;99.40;;;;;;4885579;29;20036;-87
2022/03/13 06:25:08;;;;;;;10.35;7.22;;;8.80;99.40;;;;;;4900212;29;20249;-87
2022/03/13 06:27:34;;;;;;;11.82;8.05;;;8.80;99.30;;;;;;4900657;29;20105;-87
2022/03/13 06:30:01;;;;;;;11.65;7.68;;;8.90;99.40;;;;;;4883827;29;20088;-87
2022/03/13 06:32:27;;;;;;;9.52;6.82;;;8.90;99.30;;;;;;4899512;29;20041;-87
2022/03/13 06:34:53;;;;;;;12.38;7.53;;;8.90;99.20;;;;;;4899694;29;20505;-87
2022/03/13 06:37:19;;;;;;;11.45;7.65;;;8.90;99.20;;;;;;4899655;29;20040;-87
2022/03/13 06:39:45;;;;;;;10.90;7.40;;;8.90;99.40;;;;;;4900458;29;20120;-87
2022/03/13 06:42:11;;;;;;;9.95;7.13;;;8.90;99.30;;;;;;4906788;29;20488;-86
2022/03/13 06:44:36;;;;;;;11.43;8.02;;;8.90;99.30;;;;;;4902803;29;20115;-87
2022/03/13 06:47:02;;;;;;;9.73;6.95;;;8.90;99.20;;;;;;4899016;29;20028;-86
2022/03/13 06:49:28;;;;;;;10.55;7.43;;;8.90;99.10;;;;;;4899943;29;20369;-87
2022/03/13 06:51:53;;;;;;;12.77;7.95;;;8.90;99.10;;;;;;4899264;29;20494;-88
2022/03/13 06:54:19;;;;;;;11.23;7.70;;;9.00;99.10;;;;;;4899206;29;20029;-87
2022/03/13 06:56:50;;;;;;;10.23;7.10;;;9.00;99.00;;;;;;4900381;29;20112;-87
2022/03/13 06:59:16;;;;;;;10.43;7.45;;;9.00;98.90;;;;;;4900603;29;20037;-88
2022/03/13 07:01:41;;;;;;;10.63;7.28;;;9.00;98.70;;;;;;4899291;29;20071;-87
2022/03/13 07:04:07;;;;;;;9.68;6.85;;;9.00;98.70;;;;;;4900084;29;20093;-86
2022/03/13 07:06:33;;;;;;;10.77;7.18;;;9.00;98.60;;;;;;4883456;29;20139;-87
2022/03/13 07:08:59;;;;;;;11.90;7.50;;;9.00;98.40;;;;;;4882912;29;20029;-87
2022/03/13 07:11:26;;;;;;;10.18;7.60;;;9.00;98.30;;;;;;4898130;29;20041;-87
2022/03/13 07:13:53;;;;;;;10.18;7.03;;;8.90;98.20;;;;;;4898448;29;20025;-86
2022/03/13 07:16:19;;;;;;;10.10;7.47;;;8.90;98.10;;;;;;4898499;29;20048;-87
2022/03/13 07:18:45;;;;;;;11.23;7.93;;;9.00;98.00;;;;;;4899855;29;20072;-87
2022/03/13 07:21:12;;;;;;;9.93;7.32;;;8.90;98.00;;;;;;4897900;29;20108;-87
2022/03/13 07:23:38;;;;;;;10.52;7.13;;;8.90;98.00;;;;;;4898211;29;20040;-87
2022/03/13 07:26:04;;;;;;;9.95;6.70;;;8.90;97.90;;;;;;4898667;29;20407;-88
2022/03/13 07:28:29;;;;;;;12.00;8.23;;;8.90;97.90;;;;;;4883112;29;20116;-87
2022/03/13 07:30:56;;;;;;;12.68;9.20;;;9.00;97.90;;;;;;4899081;29;20040;-87
2022/03/13 07:33:21;;;;;;;10.73;7.82;;;9.10;97.60;;;;;;4901912;29;20040;-87
2022/03/13 07:35:47;;;;;;;10.73;7.43;;;9.10;97.70;;;;;;4899107;29;20028;-86
2022/03/13 07:38:13;;;;;;;11.82;8.00;;;9.10;97.60;;;;;;4898660;29;20495;-87
2022/03/13 07:40:38;;;;;;;10.27;7.63;;;9.10;97.50;;;;;;4898011;29;20044;-88
2022/03/13 07:43:04;;;;;;;12.05;8.45;;;9.20;97.60;;;;;;4897889;29;20044;-87
2022/03/13 07:45:30;;;;;;;13.25;7.75;;;9.20;97.80;;;;;;4899056;29;20040;-86
2022/03/13 07:47:59;;;;;;;13.52;8.00;;;9.20;97.50;;;;;;4899131;29;20048;-87
2022/03/13 07:50:28;;;;;;;10.20;7.57;;;9.20;97.40;;;;;;4898885;29;20051;-87
2022/03/13 07:52:54;;;;;;;14.38;9.35;;;9.30;97.30;;;;;;4895268;29;20033;-84
2022/03/13 07:55:21;;;;;;;13.88;9.95;;;9.20;96.90;;;;;;4906139;29;20400;-86
2022/03/13 07:57:48;;;;;;;13.02;8.75;;;9.20;96.60;;;;;;4896857;29;20480;-86
2022/03/13 08:00:17;;;;;;;16.00;10.23;;;9.30;96.70;;;;;;4895385;29;20054;-86
2022/03/13 08:02:46;;;;;;;14.55;9.82;;;9.30;96.10;;;;;;4898105;29;20411;-84
2022/03/13 08:05:13;;;;;;;12.95;9.23;;;9.30;96.00;;;;;;4895688;29;20047;-86
2022/03/13 08:07:39;;;;;;;10.57;8.13;;;9.30;96.10;;;;;;4895417;29;20516;-85
2022/03/13 08:10:05;;;;;;;12.60;9.32;;;9.40;96.10;;;;;;4895480;29;20037;-87
2022/03/13 08:12:31;;;;;;;12.82;9.32;;;9.40;95.90;;;;;;4879084;29;20085;-87
2022/03/13 08:14:56;;;;;;;12.00;8.50;;;9.50;96.00;;;;;;4879503;29;20067;-88
2022/03/13 08:17:22;;;;;;;10.88;8.40;;;9.50;96.10;;;;;;4896823;29;20028;-85
2022/03/13 08:19:47;;;;;;;11.32;8.02;;;9.60;96.10;;;;;;4895248;29;20045;-86
2022/03/13 08:22:14;;;;;;;11.48;8.18;;;9.60;96.00;;;;;;4895137;29;20385;-85
2022/03/13 08:24:40;;;;;;;11.25;7.85;;;9.60;96.00;;;;;;4896095;29;20033;-85
2022/03/13 08:27:06;;;;;;;13.45;9.73;;;9.60;95.80;;;;;;4899045;29;20044;-86
2022/03/13 08:29:32;;;;;;;14.73;10.15;;;9.70;95.70;;;;;;4898982;29;20028;-86
2022/03/13 08:31:58;;;;;;;14.18;9.85;;;9.80;94.50;;;;;;4899936;29;20075;-85
2022/03/13 08:34:23;;;;;;;12.10;8.40;;;9.80;95.10;;;;;;4890440;29;20593;-86
2022/03/13 08:36:50;;;;;;;10.93;7.93;;;9.90;95.10;;;;;;4893184;29;20055;-86
2022/03/13 08:39:16;;;;;;;10.38;7.50;;;10.00;95.20;;;;;;4919374;29;20039;-86
2022/03/13 08:41:41;;;;;;;12.05;8.63;;;10.00;95.00;;;;;;4922379;29;20369;-88
2022/03/13 08:44:08;;;;;;;12.00;7.85;;;10.10;95.00;;;;;;4903663;29;20032;-86
2022/03/13 08:46:34;;;;;;;10.60;7.15;;;10.10;94.90;;;;;;4900767;29;20047;-86
2022/03/13 08:49:00;;;;;;;12.32;7.72;;;10.10;94.90;;;;;;4898804;29;20032;-86
2022/03/13 08:51:27;;;;;;;11.55;7.30;;;10.10;95.00;;;;;;4914451;29;20105;-86
2022/03/13 08:53:53;;;;;;;12.32;7.68;;;10.20;95.00;;;;;;4915942;29;20028;-87
2022/03/13 08:56:20;;;;;;;13.40;9.57;;;10.20;94.80;;;;;;4915162;29;20039;-86
2022/03/13 08:58:46;;;;;;;13.55;8.68;;;10.20;93.90;;;;;;4898161;29;20092;-85
2022/03/13 09:01:12;;;;;;;12.65;9.10;;;10.20;94.30;;;;;;4883912;29;20523;-85
2022/03/13 09:03:37;;;;;;;12.77;8.60;;;10.30;94.30;;;;;;4918577;29;20040;-86
2022/03/13 09:06:03;;;;;;;11.10;7.80;;;10.30;94.30;;;;;;4916519;29;20036;-85
2022/03/13 09:08:29;;;;;;;10.68;7.45;;;10.40;94.20;;;;;;4917560;29;20035;-85
2022/03/13 09:10:56;;;;;;;15.20;8.73;;;10.40;94.20;;;;;;4917983;29;20047;-86
2022/03/13 09:13:21;;;;;;;14.63;9.00;;;10.50;93.50;;;;;;4918158;29;20032;-85
2022/03/13 09:15:48;;;;;;;13.60;9.35;;;10.60;93.70;;;;;;4918033;29;20051;-85
2022/03/13 09:18:14;;;;;;;13.27;9.00;;;10.70;93.60;;;;;;4918424;29;20032;-86
2022/03/13 09:20:40;;;;;;;14.18;9.05;;;10.70;93.10;;;;;;4918075;29;20131;-86
2022/03/13 09:23:06;;;;;;;14.02;9.90;;;10.80;93.30;;;;;;4918458;29;20213;-86
2022/03/13 09:25:32;;;;;;;12.60;9.00;;;10.80;92.90;;;;;;4892940;29;20127;-85
2022/03/13 09:27:58;;;;;;;11.18;8.68;;;10.90;93.10;;;;;;4899843;29;20043;-87
2022/03/13 09:30:24;;;;;;;12.93;8.27;;;11.20;93.20;;;;;;4898427;29;20317;-87
2022/03/13 09:32:51;;;;;;;11.05;8.40;;;11.60;93.10;;;;;;4897191;29;20029;-85
2022/03/13 09:35:17;;;;;;;12.32;8.23;;;12.00;92.90;;;;;;4896715;29;20051;-88
2022/03/13 09:37:43;;;;;;;14.07;9.60;;;12.40;92.70;;;;;;4911375;29;20041;-88
2022/03/13 09:40:10;;;;;;;15.25;10.70;;;12.90;92.10;;;;;;4900323;29;20381;-84
2022/03/13 09:42:36;;;;;;;13.82;9.90;;;14.10;90.10;;;;;;4907558;29;20554;-86
2022/03/13 09:45:03;;;;;;;13.75;9.02;;;15.50;89.40;;;;;;4896914;29;20043;-88
2022/03/13 09:47:29;;;;;;;11.80;8.10;;;16.60;88.60;;;;;;4916157;29;20410;-89
2022/03/13 09:49:55;;;;;;;14.82;10.63;;;17.40;87.40;;;;;;4918311;29;20039;-87
2022/03/13 09:52:21;;;;;;;12.35;9.35;;;18.00;82.70;;;;;;4918337;29;20029;-87
2022/03/13 09:54:46;;;;;;;11.45;8.85;;;18.30;81.40;;;;;;4917302;29;20049;-88
2022/03/13 09:57:12;;;;;;;11.07;8.45;;;18.70;81.50;;;;;;4897346;29;20739;-89
2022/03/13 09:59:38;;;;;;;9.38;7.57;;;19.20;81.50;;;;;;4881040;29;20457;-87
2022/03/13 10:02:08;;;;;;;11.75;9.23;;;20.10;80.70;;;;;;4903367;29;20088;-87
2022/03/13 10:04:34;;;;;;;14.45;10.48;;;20.60;77.80;;;;;;4904918;29;20136;-87
2022/03/13 10:07:02;;;;;;;13.55;10.60;;;20.40;73.30;;;;;;4909411;29;20036;-86
2022/03/13 10:09:30;;;;;;;12.75;9.13;;;19.70;74.00;;;;;;4897823;29;20036;-88
2022/03/13 10:12:08;;;;;;;13.00;9.45;;;19.10;75.00;;;;;;4900701;29;20048;-86
2022/03/13 10:14:35;;;;;;;11.68;9.35;;;19.00;76.10;;;;;;4918420;29;20044;-88
2022/03/13 10:17:01;;;;;;;11.30;8.88;;;19.30;76.30;;;;;;4902861;29;20029;-87
2022/03/13 10:19:28;;;;;;;13.43;9.45;;;19.50;76.80;;;;;;4895164;29;20139;-86
2022/03/13 10:22:08;;;;;;;11.35;8.05;;;20.20;75.70;;;;;;4885149;29;20044;-85
2022/03/13 10:24:49;;;;;;;13.35;10.10;;;21.00;74.40;;;;;;4890596;29;20050;-88
2022/03/13 10:27:17;;;;;;;11.38;9.15;;;21.40;72.40;;;;;;4896616;29;20150;-85
2022/03/13 10:29:45;;;;;;;11.68;9.25;;;21.30;72.00;;;;;;4901566;29;20040;-87
2022/03/13 10:32:12;;;;;;;9.98;8.32;;;20.90;71.90;;;;;;4899580;29;20036;-88
2022/03/13 10:34:39;;;;;;;11.75;8.90;;;20.70;72.70;;;;;;4906180;29;20122;-89
2022/03/13 10:37:06;;;;;;;10.38;8.27;;;20.20;72.50;;;;;;4914034;29;20740;-91
2022/03/13 10:39:34;;;;;;;11.23;8.90;;;19.80;73.50;;;;;;4888871;29;20495;-88
2022/03/13 10:42:03;;;;;;;10.63;8.70;;;19.40;74.30;;;;;;4912504;29;20090;-83
2022/03/13 10:44:41;;;;;;;11.95;9.20;;;19.20;74.30;;;;;;4909829;29;20044;-88
2022/03/13 10:47:11;;;;;;;17.27;12.02;;;19.30;74.70;;;;;;4905780;29;20040;-86
2022/03/13 10:49:44;;;;;;;14.70;11.40;;;19.40;72.80;;;;;;4890540;29;20032;-88
2022/03/13 10:52:29;;;;;;;11.00;8.88;;;19.20;72.60;;;;;;4895640;29;20040;-89
2022/03/13 10:55:14;;;;;;;13.93;11.18;;;19.20;73.60;;;;;;4893991;29;20028;-91
2022/03/13 10:57:51;;;;;;;13.77;10.25;;;19.30;72.50;;;;;;4896728;29;20388;-90
2022/03/13 11:00:17;;;;;;;13.65;10.52;;;19.30;72.40;;;;;;4885582;29;20055;-89
2022/03/13 11:02:44;;;;;;;13.63;10.80;;;19.40;72.50;;;;;;4896428;29;20399;-91
2022/03/13 11:05:10;;;;;;;12.00;8.95;;;19.50;72.60;;;;;;4880182;29;20199;-91
2022/03/13 11:07:37;;;;;;;14.38;10.50;;;19.60;73.10;;;;;;4911475;29;20583;-90
2022/03/13 11:10:05;;;;;;;12.40;9.18;;;20.10;73.30;;;;;;4903198;29;20039;-89
2022/03/13 11:12:31;;;;;;;10.82;8.70;;;20.80;73.20;;;;;;4915338;29;20055;-91
2022/03/13 11:15:02;;;;;;;14.35;11.00;;;21.70;72.80;;;;;;4903425;29;20543;-91
2022/03/13 11:17:33;;;;;;;17.73;12.90;;;22.40;71.40;;;;;;4911603;29;20040;-91
2022/03/13 11:20:00;;;;;;;14.93;11.73;;;22.80;68.50;;;;;;4885703;29;20135;-89
2022/03/13 11:22:29;;;;;;;11.65;9.80;;;22.80;68.40;;;;;;4895620;29;20047;-89
2022/03/13 11:25:02;;;;;;;15.30;10.07;;;23.00;69.60;;;;;;4889220;29;20716;-88
2022/03/13 11:27:30;;;;;;;11.32;9.18;;;23.50;69.00;;;;;;4895869;29;20404;-88
2022/03/13 11:29:59;;;;;;;17.75;12.07;;;23.80;69.10;;;;;;4901023;29;20155;-90
2022/03/13 11:32:35;;;;;;;12.32;10.77;;;24.00;67.30;;;;;;4907164;29;20072;-88
2022/03/13 11:35:18;;;;;;;14.23;11.50;;;24.10;67.40;;;;;;4896305;29;20399;-91
2022/03/13 11:38:13;;;;;;;13.48;10.57;;;24.20;65.90;;;;;;4883083;29;20041;-93
2022/03/13 11:40:39;;;;;;;13.15;10.75;;;24.30;66.10;;;;;;4896766;29;20139;-88
2022/03/13 11:43:14;;;;;;;13.25;10.80;;;24.10;65.10;;;;;;4899127;29;20024;-90
2022/03/13 11:45:53;;;;;;;14.07;11.88;;;23.80;65.50;;;;;;4904053;29;20040;-88
2022/03/13 11:48:22;;;;;;;13.98;10.45;;;23.80;63.10;;;;;;4899234;29;20033;-91
2022/03/13 11:50:54;;;;;;;14.15;10.90;;;23.60;66.20;;;;;;4884969;29;20047;-90
2022/03/13 11:53:23;;;;;;;12.85;10.50;;;23.80;65.90;;;;;;4904449;29;20040;-91
2022/03/13 11:55:58;;;;;;;10.35;8.90;;;24.00;66.00;;;;;;4902586;29;20033;-89
2022/03/13 11:58:46;;;;;;;8.73;7.03;;;24.00;66.40;;;;;;4883551;29;20040;-88
2022/03/13 12:01:31;;;;;;;11.65;9.25;;;24.20;66.80;;;;;;4902632;29;20064;-89
2022/03/13 12:04:03;;;;;;;11.95;9.73;;;24.40;61.60;;;;;;4922791;29;20013;-88
2022/03/13 12:06:42;;;;;;;9.80;8.07;;;24.10;63.90;;;;;;4906881;29;20057;-87
2022/03/13 12:09:44;;;;;;;12.63;9.60;;;23.90;65.20;;;;;;4922353;29;20044;-88
2022/03/13 12:12:15;;;;;;;9.27;7.72;;;24.00;63.60;;;;;;4921910;29;20060;-90
2022/03/13 12:14:54;;;;;;;10.02;8.13;;;24.00;64.90;;;;;;4922162;29;20020;-89
2022/03/13 12:17:25;;;;;;;10.20;8.43;;;24.10;65.20;;;;;;4922277;29;20072;-88
2022/03/13 12:19:56;;;;;;;10.25;8.43;;;24.30;64.50;;;;;;4925681;28;20096;-87
2022/03/13 12:22:25;;;;;;;9.45;8.02;;;24.50;63.50;;;;;;4932208;28;20028;-87
2022/03/13 12:24:56;;;;;;;11.15;8.30;;;24.40;63.40;;;;;;4941481;28;20017;-89
2022/03/13 12:27:26;;;;;;;14.55;8.90;;;24.50;64.10;;;;;;4925367;28;20017;-89
2022/03/13 12:29:57;;;;;;;11.65;9.48;;;24.40;64.20;;;;;;4933873;28;20054;-93
2022/03/13 12:32:34;;;;;;;9.80;8.18;;;24.40;62.90;;;;;;4905980;29;20028;-94
2022/03/13 12:35:02;;;;;;;10.88;8.82;;;24.60;64.00;;;;;;4937416;28;20027;-87
2022/03/13 12:37:28;;;;;;;10.52;7.30;;;24.70;63.10;;;;;;4928262;29;20020;-89
2022/03/13 12:39:58;;;;;;;10.13;8.40;;;24.80;63.90;;;;;;4924229;29;20032;-91
2022/03/13 12:42:26;;;;;;;11.90;9.25;;;24.80;62.50;;;;;;4906384;29;20045;-91